sensor_id;sensor_type;location;lat;lon;timestamp;P1;durP1;ratioP1;P2;durP2;ratioP2
6031;SDS011;3044;43.232;27.972;2022-08-19T00:01:35;12.37;;;10.50;;
6031;SDS011;3044;43.232;27.972;2022-08-19T00:04:04;11.37;;;9.33;;
6031;SDS011;3044;43.232;27.972;2022-08-19T00:06:33;13.77;;;9.53;;
6031;SDS011;3044;43.232;27.972;2022-08-19T00:09:02;10.20;;;9.10;;
6031;SDS011;3044;43.232;27.972;2022-08-19T00:11:32;11.43;;;10.23;;
6031;SDS011;3044;43.232;27.972;2022-08-19T00:13:59;12.20;;;9.33;;
6031;SDS011;3044;43.232;27.972;2022-08-19T00:16:27;12.10;;;9.60;;
6031;SDS011;3044;43.232;27.972;2022-08-19T00:18:56;13.73;;;10.13;;
6031;SDS011;3044;43.232;27.972;2022-08-19T00:21:24;13.03;;;9.60;;
6031;SDS011;3044;43.232;27.972;2022-08-19T00:23:52;12.73;;;10.30;;
6031;SDS011;3044;43.232;27.972;2022-08-19T00:26:19;12.67;;;10.17;;
6031;SDS011;3044;43.232;27.972;2022-08-19T00:28:46;9.80;;;8.77;;
6031;SDS011;3044;43.232;27.972;2022-08-19T00:31:13;20.03;;;9.50;;
6031;SDS011;3044;43.232;27.972;2022-08-19T00:33:41;15.37;;;10.30;;
6031;SDS011;3044;43.232;27.972;2022-08-19T00:36:11;12.40;;;9.50;;
6031;SDS011;3044;43.232;27.972;2022-08-19T00:38:39;10.60;;;9.50;;
6031;SDS011;3044;43.232;27.972;2022-08-19T00:41:08;11.67;;;9.90;;
6031;SDS011;3044;43.232;27.972;2022-08-19T00:43:36;21.17;;;10.10;;
6031;SDS011;3044;43.232;27.972;2022-08-19T00:46:04;12.40;;;10.70;;
6031;SDS011;3044;43.232;27.972;2022-08-19T00:48:32;10.57;;;9.53;;
6031;SDS011;3044;43.232;27.972;2022-08-19T00:51:01;11.00;;;10.00;;
6031;SDS011;3044;43.232;27.972;2022-08-19T00:53:32;11.70;;;10.50;;
6031;SDS011;3044;43.232;27.972;2022-08-19T00:56:00;13.63;;;10.30;;
6031;SDS011;3044;43.232;27.972;2022-08-19T00:58:32;12.70;;;10.97;;
6031;SDS011;3044;43.232;27.972;2022-08-19T01:01:01;11.73;;;10.53;;
6031;SDS011;3044;43.232;27.972;2022-08-19T01:03:29;10.90;;;9.90;;
6031;SDS011;3044;43.232;27.972;2022-08-19T01:05:57;11.47;;;10.27;;
6031;SDS011;3044;43.232;27.972;2022-08-19T01:08:25;13.00;;;10.83;;
6031;SDS011;3044;43.232;27.972;2022-08-19T01:10:54;18.23;;;10.20;;
6031;SDS011;3044;43.232;27.972;2022-08-19T01:13:25;11.13;;;10.03;;
6031;SDS011;3044;43.232;27.972;2022-08-19T01:15:56;12.90;;;10.30;;
6031;SDS011;3044;43.232;27.972;2022-08-19T01:18:25;11.83;;;9.60;;
6031;SDS011;3044;43.232;27.972;2022-08-19T01:20:54;10.63;;;9.63;;
6031;SDS011;3044;43.232;27.972;2022-08-19T01:23:27;10.83;;;9.37;;
6031;SDS011;3044;43.232;27.972;2022-08-19T01:26:08;12.10;;;10.97;;
6031;SDS011;3044;43.232;27.972;2022-08-19T01:28:37;14.53;;;9.83;;
6031;SDS011;3044;43.232;27.972;2022-08-19T01:31:05;13.50;;;10.20;;
6031;SDS011;3044;43.232;27.972;2022-08-19T01:33:36;14.20;;;10.60;;
6031;SDS011;3044;43.232;27.972;2022-08-19T01:36:05;11.53;;;10.00;;
6031;SDS011;3044;43.232;27.972;2022-08-19T01:38:37;12.33;;;9.30;;
6031;SDS011;3044;43.232;27.972;2022-08-19T01:41:07;11.53;;;10.33;;
6031;SDS011;3044;43.232;27.972;2022-08-19T01:43:36;11.97;;;9.43;;
6031;SDS011;3044;43.232;27.972;2022-08-19T01:46:04;12.70;;;9.47;;
6031;SDS011;3044;43.232;27.972;2022-08-19T01:48:35;12.53;;;9.50;;
6031;SDS011;3044;43.232;27.972;2022-08-19T01:51:04;11.23;;;10.17;;
6031;SDS011;3044;43.232;27.972;2022-08-19T01:53:33;11.30;;;10.00;;
6031;SDS011;3044;43.232;27.972;2022-08-19T01:56:02;18.47;;;10.80;;
6031;SDS011;3044;43.232;27.972;2022-08-19T01:58:32;12.70;;;10.67;;
6031;SDS011;3044;43.232;27.972;2022-08-19T02:01:03;11.33;;;10.10;;
6031;SDS011;3044;43.232;27.972;2022-08-19T02:03:31;11.27;;;10.17;;
6031;SDS011;3044;43.232;27.972;2022-08-19T02:06:00;13.67;;;10.30;;
6031;SDS011;3044;43.232;27.972;2022-08-19T02:08:31;11.70;;;10.50;;
6031;SDS011;3044;43.232;27.972;2022-08-19T02:11:03;15.10;;;10.23;;
6031;SDS011;3044;43.232;27.972;2022-08-19T02:13:31;18.00;;;10.60;;
6031;SDS011;3044;43.232;27.972;2022-08-19T02:15:59;32.67;;;10.33;;
6031;SDS011;3044;43.232;27.972;2022-08-19T02:18:26;11.90;;;9.53;;
6031;SDS011;3044;43.232;27.972;2022-08-19T02:20:53;12.73;;;10.33;;
6031;SDS011;3044;43.232;27.972;2022-08-19T02:23:20;12.70;;;9.90;;
6031;SDS011;3044;43.232;27.972;2022-08-19T02:25:48;10.37;;;9.47;;
6031;SDS011;3044;43.232;27.972;2022-08-19T02:28:18;10.40;;;9.43;;
6031;SDS011;3044;43.232;27.972;2022-08-19T02:30:45;11.20;;;9.83;;
6031;SDS011;3044;43.232;27.972;2022-08-19T02:33:14;12.47;;;9.47;;
6031;SDS011;3044;43.232;27.972;2022-08-19T02:35:41;12.63;;;9.10;;
6031;SDS011;3044;43.232;27.972;2022-08-19T02:38:09;13.93;;;11.03;;
6031;SDS011;3044;43.232;27.972;2022-08-19T02:40:55;12.03;;;10.47;;
6031;SDS011;3044;43.232;27.972;2022-08-19T02:43:24;10.97;;;9.50;;
6031;SDS011;3044;43.232;27.972;2022-08-19T02:45:53;16.90;;;9.80;;
6031;SDS011;3044;43.232;27.972;2022-08-19T02:48:21;18.57;;;10.10;;
6031;SDS011;3044;43.232;27.972;2022-08-19T02:50:51;21.00;;;10.53;;
6031;SDS011;3044;43.232;27.972;2022-08-19T02:53:20;11.00;;;9.90;;
6031;SDS011;3044;43.232;27.972;2022-08-19T02:55:49;13.40;;;9.60;;
6031;SDS011;3044;43.232;27.972;2022-08-19T02:58:17;9.47;;;8.60;;
6031;SDS011;3044;43.232;27.972;2022-08-19T03:00:47;15.17;;;10.70;;
6031;SDS011;3044;43.232;27.972;2022-08-19T03:03:16;13.80;;;10.07;;
6031;SDS011;3044;43.232;27.972;2022-08-19T03:05:44;11.43;;;9.73;;
6031;SDS011;3044;43.232;27.972;2022-08-19T03:08:12;10.20;;;9.30;;
6031;SDS011;3044;43.232;27.972;2022-08-19T03:10:40;10.77;;;9.77;;
6031;SDS011;3044;43.232;27.972;2022-08-19T03:13:10;12.77;;;9.97;;
6031;SDS011;3044;43.232;27.972;2022-08-19T03:15:39;12.13;;;10.90;;
6031;SDS011;3044;43.232;27.972;2022-08-19T03:18:09;11.50;;;10.30;;
6031;SDS011;3044;43.232;27.972;2022-08-19T03:20:40;13.73;;;10.63;;
6031;SDS011;3044;43.232;27.972;2022-08-19T03:23:08;13.00;;;10.43;;
6031;SDS011;3044;43.232;27.972;2022-08-19T03:25:37;14.20;;;9.80;;
6031;SDS011;3044;43.232;27.972;2022-08-19T03:28:05;12.30;;;9.90;;
6031;SDS011;3044;43.232;27.972;2022-08-19T03:30:33;12.70;;;11.30;;
6031;SDS011;3044;43.232;27.972;2022-08-19T03:33:00;10.20;;;9.30;;
6031;SDS011;3044;43.232;27.972;2022-08-19T03:35:29;14.00;;;10.37;;
6031;SDS011;3044;43.232;27.972;2022-08-19T03:37:57;12.63;;;10.57;;
6031;SDS011;3044;43.232;27.972;2022-08-19T03:40:25;13.63;;;9.60;;
6031;SDS011;3044;43.232;27.972;2022-08-19T03:42:52;11.60;;;10.23;;
6031;SDS011;3044;43.232;27.972;2022-08-19T03:45:19;10.73;;;9.80;;
6031;SDS011;3044;43.232;27.972;2022-08-19T03:47:46;11.20;;;10.10;;
6031;SDS011;3044;43.232;27.972;2022-08-19T03:50:13;16.10;;;10.10;;
6031;SDS011;3044;43.232;27.972;2022-08-19T03:52:42;14.43;;;10.17;;
6031;SDS011;3044;43.232;27.972;2022-08-19T03:55:15;12.20;;;9.73;;
6031;SDS011;3044;43.232;27.972;2022-08-19T03:57:42;15.07;;;11.50;;
6031;SDS011;3044;43.232;27.972;2022-08-19T04:00:11;13.53;;;10.67;;
6031;SDS011;3044;43.232;27.972;2022-08-19T04:02:39;12.33;;;11.13;;
6031;SDS011;3044;43.232;27.972;2022-08-19T04:05:07;15.00;;;10.50;;
6031;SDS011;3044;43.232;27.972;2022-08-19T04:07:34;13.17;;;9.97;;
6031;SDS011;3044;43.232;27.972;2022-08-19T04:10:03;10.63;;;9.63;;
6031;SDS011;3044;43.232;27.972;2022-08-19T04:12:31;14.10;;;10.60;;
6031;SDS011;3044;43.232;27.972;2022-08-19T04:14:58;14.90;;;9.83;;
6031;SDS011;3044;43.232;27.972;2022-08-19T04:17:26;11.07;;;9.60;;
6031;SDS011;3044;43.232;27.972;2022-08-19T04:19:53;11.70;;;10.50;;
6031;SDS011;3044;43.232;27.972;2022-08-19T04:22:20;19.00;;;10.63;;
6031;SDS011;3044;43.232;27.972;2022-08-19T04:24:47;13.97;;;9.77;;
6031;SDS011;3044;43.232;27.972;2022-08-19T04:27:16;12.90;;;10.13;;
6031;SDS011;3044;43.232;27.972;2022-08-19T04:29:43;15.33;;;10.60;;
6031;SDS011;3044;43.232;27.972;2022-08-19T04:32:10;13.00;;;10.57;;
6031;SDS011;3044;43.232;27.972;2022-08-19T04:34:40;11.17;;;10.13;;
6031;SDS011;3044;43.232;27.972;2022-08-19T04:37:07;14.23;;;10.30;;
6031;SDS011;3044;43.232;27.972;2022-08-19T04:39:36;12.10;;;10.30;;
6031;SDS011;3044;43.232;27.972;2022-08-19T04:42:23;18.20;;;10.27;;
6031;SDS011;3044;43.232;27.972;2022-08-19T04:45:05;10.33;;;8.90;;
6031;SDS011;3044;43.232;27.972;2022-08-19T04:47:35;10.27;;;9.37;;
6031;SDS011;3044;43.232;27.972;2022-08-19T04:50:02;11.73;;;9.60;;
6031;SDS011;3044;43.232;27.972;2022-08-19T04:52:31;10.07;;;8.60;;
6031;SDS011;3044;43.232;27.972;2022-08-19T04:54:58;13.30;;;9.70;;
6031;SDS011;3044;43.232;27.972;2022-08-19T04:57:27;9.53;;;8.73;;
6031;SDS011;3044;43.232;27.972;2022-08-19T04:59:54;11.37;;;9.53;;
6031;SDS011;3044;43.232;27.972;2022-08-19T05:02:22;10.20;;;8.63;;
6031;SDS011;3044;43.232;27.972;2022-08-19T05:04:50;10.27;;;9.23;;
6031;SDS011;3044;43.232;27.972;2022-08-19T05:07:22;12.30;;;8.87;;
6031;SDS011;3044;43.232;27.972;2022-08-19T05:09:49;13.63;;;8.80;;
6031;SDS011;3044;43.232;27.972;2022-08-19T05:12:16;10.63;;;8.50;;
6031;SDS011;3044;43.232;27.972;2022-08-19T05:14:45;9.83;;;8.77;;
6031;SDS011;3044;43.232;27.972;2022-08-19T05:17:13;9.47;;;8.47;;
6031;SDS011;3044;43.232;27.972;2022-08-19T05:19:40;10.33;;;8.43;;
6031;SDS011;3044;43.232;27.972;2022-08-19T05:22:24;9.73;;;8.70;;
6031;SDS011;3044;43.232;27.972;2022-08-19T05:25:02;16.70;;;9.10;;
6031;SDS011;3044;43.232;27.972;2022-08-19T05:27:31;16.70;;;9.10;;
6031;SDS011;3044;43.232;27.972;2022-08-19T05:30:00;8.60;;;7.80;;
6031;SDS011;3044;43.232;27.972;2022-08-19T05:32:28;9.87;;;8.27;;
6031;SDS011;3044;43.232;27.972;2022-08-19T05:34:55;9.73;;;8.60;;
6031;SDS011;3044;43.232;27.972;2022-08-19T05:37:22;15.43;;;8.90;;
6031;SDS011;3044;43.232;27.972;2022-08-19T05:39:52;12.80;;;8.27;;
6031;SDS011;3044;43.232;27.972;2022-08-19T05:42:20;9.23;;;8.30;;
6031;SDS011;3044;43.232;27.972;2022-08-19T05:44:48;11.77;;;9.10;;
6031;SDS011;3044;43.232;27.972;2022-08-19T05:47:17;11.20;;;8.77;;
6031;SDS011;3044;43.232;27.972;2022-08-19T05:49:45;9.73;;;8.50;;
6031;SDS011;3044;43.232;27.972;2022-08-19T05:52:15;11.53;;;8.47;;
6031;SDS011;3044;43.232;27.972;2022-08-19T05:54:42;12.73;;;8.33;;
6031;SDS011;3044;43.232;27.972;2022-08-19T05:57:10;11.43;;;7.93;;
6031;SDS011;3044;43.232;27.972;2022-08-19T05:59:37;12.80;;;8.87;;
6031;SDS011;3044;43.232;27.972;2022-08-19T06:02:05;13.23;;;8.50;;
6031;SDS011;3044;43.232;27.972;2022-08-19T06:04:34;10.33;;;9.00;;
6031;SDS011;3044;43.232;27.972;2022-08-19T06:07:02;9.40;;;7.90;;
6031;SDS011;3044;43.232;27.972;2022-08-19T06:09:29;21.30;;;8.40;;
6031;SDS011;3044;43.232;27.972;2022-08-19T06:11:57;13.53;;;8.83;;
6031;SDS011;3044;43.232;27.972;2022-08-19T06:14:27;7.80;;;7.10;;
6031;SDS011;3044;43.232;27.972;2022-08-19T06:16:55;8.97;;;8.03;;
6031;SDS011;3044;43.232;27.972;2022-08-19T06:19:27;13.47;;;8.30;;
6031;SDS011;3044;43.232;27.972;2022-08-19T06:21:57;17.50;;;8.60;;
6031;SDS011;3044;43.232;27.972;2022-08-19T06:24:26;11.67;;;8.63;;
6031;SDS011;3044;43.232;27.972;2022-08-19T06:26:57;12.60;;;8.50;;
6031;SDS011;3044;43.232;27.972;2022-08-19T06:29:25;13.47;;;8.77;;
6031;SDS011;3044;43.232;27.972;2022-08-19T06:31:54;10.13;;;7.60;;
6031;SDS011;3044;43.232;27.972;2022-08-19T06:34:22;12.50;;;8.17;;
6031;SDS011;3044;43.232;27.972;2022-08-19T06:36:50;10.40;;;8.03;;
6031;SDS011;3044;43.232;27.972;2022-08-19T06:39:21;20.67;;;9.10;;
6031;SDS011;3044;43.232;27.972;2022-08-19T06:41:50;10.23;;;7.80;;
6031;SDS011;3044;43.232;27.972;2022-08-19T06:44:19;15.97;;;8.33;;
6031;SDS011;3044;43.232;27.972;2022-08-19T06:46:48;8.83;;;7.37;;
6031;SDS011;3044;43.232;27.972;2022-08-19T06:49:16;18.43;;;7.93;;
6031;SDS011;3044;43.232;27.972;2022-08-19T06:51:44;13.87;;;7.70;;
6031;SDS011;3044;43.232;27.972;2022-08-19T06:54:13;8.00;;;7.40;;
6031;SDS011;3044;43.232;27.972;2022-08-19T06:56:43;12.53;;;7.17;;
6031;SDS011;3044;43.232;27.972;2022-08-19T06:59:12;8.23;;;7.30;;
6031;SDS011;3044;43.232;27.972;2022-08-19T07:01:41;14.73;;;7.37;;
6031;SDS011;3044;43.232;27.972;2022-08-19T07:04:12;9.10;;;6.87;;
6031;SDS011;3044;43.232;27.972;2022-08-19T07:06:40;11.80;;;7.47;;
6031;SDS011;3044;43.232;27.972;2022-08-19T07:09:08;27.17;;;8.23;;
6031;SDS011;3044;43.232;27.972;2022-08-19T07:11:37;12.63;;;6.70;;
6031;SDS011;3044;43.232;27.972;2022-08-19T07:14:05;7.90;;;7.00;;
6031;SDS011;3044;43.232;27.972;2022-08-19T07:16:33;8.70;;;6.80;;
6031;SDS011;3044;43.232;27.972;2022-08-19T07:19:01;10.00;;;6.50;;
6031;SDS011;3044;43.232;27.972;2022-08-19T07:21:28;8.53;;;7.63;;
6031;SDS011;3044;43.232;27.972;2022-08-19T07:23:56;12.50;;;7.50;;
6031;SDS011;3044;43.232;27.972;2022-08-19T07:26:26;7.70;;;6.73;;
6031;SDS011;3044;43.232;27.972;2022-08-19T07:28:55;12.47;;;7.20;;
6031;SDS011;3044;43.232;27.972;2022-08-19T07:31:26;14.07;;;7.00;;
6031;SDS011;3044;43.232;27.972;2022-08-19T07:33:54;10.77;;;7.50;;
6031;SDS011;3044;43.232;27.972;2022-08-19T07:36:23;6.63;;;6.07;;
6031;SDS011;3044;43.232;27.972;2022-08-19T07:38:53;7.83;;;6.43;;
6031;SDS011;3044;43.232;27.972;2022-08-19T07:41:22;10.80;;;6.37;;
6031;SDS011;3044;43.232;27.972;2022-08-19T07:43:51;9.63;;;7.40;;
6031;SDS011;3044;43.232;27.972;2022-08-19T07:46:19;8.93;;;6.70;;
6031;SDS011;3044;43.232;27.972;2022-08-19T07:48:48;11.90;;;5.70;;
6031;SDS011;3044;43.232;27.972;2022-08-19T07:51:18;11.13;;;8.30;;
6031;SDS011;3044;43.232;27.972;2022-08-19T07:53:47;16.90;;;7.93;;
6031;SDS011;3044;43.232;27.972;2022-08-19T07:56:17;13.63;;;7.50;;
6031;SDS011;3044;43.232;27.972;2022-08-19T07:58:50;8.60;;;6.67;;
6031;SDS011;3044;43.232;27.972;2022-08-19T08:08:09;6.83;;;6.13;;
6031;SDS011;3044;43.232;27.972;2022-08-19T08:11:02;8.80;;;5.73;;
6031;SDS011;3044;43.232;27.972;2022-08-19T08:13:29;10.93;;;6.43;;
6031;SDS011;3044;43.232;27.972;2022-08-19T08:15:58;12.50;;;5.87;;
6031;SDS011;3044;43.232;27.972;2022-08-19T08:18:25;13.53;;;5.80;;
6031;SDS011;3044;43.232;27.972;2022-08-19T08:20:52;9.87;;;6.73;;
6031;SDS011;3044;43.232;27.972;2022-08-19T08:23:22;9.83;;;6.10;;
6031;SDS011;3044;43.232;27.972;2022-08-19T08:25:50;10.07;;;6.20;;
6031;SDS011;3044;43.232;27.972;2022-08-19T08:28:18;8.70;;;5.80;;
6031;SDS011;3044;43.232;27.972;2022-08-19T08:30:45;9.43;;;6.33;;
6031;SDS011;3044;43.232;27.972;2022-08-19T08:33:16;12.23;;;6.43;;
6031;SDS011;3044;43.232;27.972;2022-08-19T08:35:45;9.70;;;6.20;;
6031;SDS011;3044;43.232;27.972;2022-08-19T08:38:12;6.83;;;6.00;;
6031;SDS011;3044;43.232;27.972;2022-08-19T08:40:44;13.83;;;6.03;;
6031;SDS011;3044;43.232;27.972;2022-08-19T08:43:20;6.40;;;5.60;;
6031;SDS011;3044;43.232;27.972;2022-08-19T08:45:52;8.97;;;5.63;;
6031;SDS011;3044;43.232;27.972;2022-08-19T08:48:24;10.37;;;6.10;;
6031;SDS011;3044;43.232;27.972;2022-08-19T08:50:58;13.90;;;5.43;;
6031;SDS011;3044;43.232;27.972;2022-08-19T08:53:29;13.07;;;6.10;;
6031;SDS011;3044;43.232;27.972;2022-08-19T08:56:00;9.33;;;5.70;;
6031;SDS011;3044;43.232;27.972;2022-08-19T08:58:31;8.20;;;5.93;;
6031;SDS011;3044;43.232;27.972;2022-08-19T09:01:11;4.93;;;4.53;;
6031;SDS011;3044;43.232;27.972;2022-08-19T09:03:39;8.87;;;5.37;;
6031;SDS011;3044;43.232;27.972;2022-08-19T09:06:11;7.87;;;5.27;;
6031;SDS011;3044;43.232;27.972;2022-08-19T09:08:45;14.77;;;6.40;;
6031;SDS011;3044;43.232;27.972;2022-08-19T09:11:23;15.00;;;5.33;;
6031;SDS011;3044;43.232;27.972;2022-08-19T09:14:06;11.50;;;6.17;;
6031;SDS011;3044;43.232;27.972;2022-08-19T09:16:43;19.30;;;6.03;;
6031;SDS011;3044;43.232;27.972;2022-08-19T09:19:10;14.73;;;6.97;;
6031;SDS011;3044;43.232;27.972;2022-08-19T09:21:37;11.27;;;6.07;;
6031;SDS011;3044;43.232;27.972;2022-08-19T09:24:05;6.73;;;5.40;;
6031;SDS011;3044;43.232;27.972;2022-08-19T09:26:34;10.53;;;6.70;;
6031;SDS011;3044;43.232;27.972;2022-08-19T09:29:01;11.43;;;5.40;;
6031;SDS011;3044;43.232;27.972;2022-08-19T09:31:30;9.63;;;6.60;;
6031;SDS011;3044;43.232;27.972;2022-08-19T09:33:58;15.70;;;6.90;;
6031;SDS011;3044;43.232;27.972;2022-08-19T09:36:26;6.37;;;5.87;;
6031;SDS011;3044;43.232;27.972;2022-08-19T09:38:58;12.43;;;6.00;;
6031;SDS011;3044;43.232;27.972;2022-08-19T09:41:26;13.50;;;6.00;;
6031;SDS011;3044;43.232;27.972;2022-08-19T09:43:56;11.47;;;5.80;;
6031;SDS011;3044;43.232;27.972;2022-08-19T09:46:25;16.00;;;6.50;;
6031;SDS011;3044;43.232;27.972;2022-08-19T09:48:54;19.97;;;7.27;;
6031;SDS011;3044;43.232;27.972;2022-08-19T09:51:24;19.90;;;6.10;;
6031;SDS011;3044;43.232;27.972;2022-08-19T09:53:53;11.30;;;5.80;;
6031;SDS011;3044;43.232;27.972;2022-08-19T09:56:22;19.07;;;6.33;;
6031;SDS011;3044;43.232;27.972;2022-08-19T09:58:50;10.67;;;5.33;;
6031;SDS011;3044;43.232;27.972;2022-08-19T10:01:19;15.53;;;6.40;;
6031;SDS011;3044;43.232;27.972;2022-08-19T10:03:48;14.33;;;5.30;;
6031;SDS011;3044;43.232;27.972;2022-08-19T10:06:18;20.07;;;6.90;;
6031;SDS011;3044;43.232;27.972;2022-08-19T10:08:46;20.33;;;7.40;;
6031;SDS011;3044;43.232;27.972;2022-08-19T10:11:14;11.53;;;6.63;;
6031;SDS011;3044;43.232;27.972;2022-08-19T10:13:42;11.43;;;6.23;;
6031;SDS011;3044;43.232;27.972;2022-08-19T10:16:12;12.53;;;6.30;;
6031;SDS011;3044;43.232;27.972;2022-08-19T10:18:42;18.63;;;5.63;;
6031;SDS011;3044;43.232;27.972;2022-08-19T10:21:10;8.10;;;5.20;;
6031;SDS011;3044;43.232;27.972;2022-08-19T10:23:40;13.60;;;5.70;;
6031;SDS011;3044;43.232;27.972;2022-08-19T10:26:11;6.07;;;5.37;;
6031;SDS011;3044;43.232;27.972;2022-08-19T10:28:39;10.10;;;5.83;;
6031;SDS011;3044;43.232;27.972;2022-08-19T10:31:08;11.00;;;5.77;;
6031;SDS011;3044;43.232;27.972;2022-08-19T10:33:37;8.93;;;6.10;;
6031;SDS011;3044;43.232;27.972;2022-08-19T10:36:07;16.50;;;6.37;;
6031;SDS011;3044;43.232;27.972;2022-08-19T10:38:37;15.60;;;5.40;;
6031;SDS011;3044;43.232;27.972;2022-08-19T10:41:08;11.23;;;6.23;;
6031;SDS011;3044;43.232;27.972;2022-08-19T10:43:37;13.83;;;6.63;;
6031;SDS011;3044;43.232;27.972;2022-08-19T10:46:05;15.17;;;5.90;;
6031;SDS011;3044;43.232;27.972;2022-08-19T10:48:32;16.00;;;6.40;;
6031;SDS011;3044;43.232;27.972;2022-08-19T10:51:00;7.60;;;5.77;;
6031;SDS011;3044;43.232;27.972;2022-08-19T10:53:46;18.07;;;7.43;;
6031;SDS011;3044;43.232;27.972;2022-08-19T10:56:14;18.70;;;7.80;;
6031;SDS011;3044;43.232;27.972;2022-08-19T10:58:58;8.07;;;7.23;;
6031;SDS011;3044;43.232;27.972;2022-08-19T11:01:26;8.97;;;7.43;;
6031;SDS011;3044;43.232;27.972;2022-08-19T11:03:55;12.07;;;8.13;;
6031;SDS011;3044;43.232;27.972;2022-08-19T11:06:23;16.30;;;7.20;;
6031;SDS011;3044;43.232;27.972;2022-08-19T11:08:53;14.10;;;7.70;;
6031;SDS011;3044;43.232;27.972;2022-08-19T11:11:21;10.73;;;8.03;;
6031;SDS011;3044;43.232;27.972;2022-08-19T11:13:49;18.60;;;8.10;;
6031;SDS011;3044;43.232;27.972;2022-08-19T11:16:17;13.70;;;8.07;;
6031;SDS011;3044;43.232;27.972;2022-08-19T11:18:46;13.20;;;8.07;;
6031;SDS011;3044;43.232;27.972;2022-08-19T11:21:15;13.70;;;8.07;;
6031;SDS011;3044;43.232;27.972;2022-08-19T11:23:44;11.90;;;8.13;;
6031;SDS011;3044;43.232;27.972;2022-08-19T11:26:13;9.57;;;8.60;;
6031;SDS011;3044;43.232;27.972;2022-08-19T11:28:42;11.60;;;9.67;;
6031;SDS011;3044;43.232;27.972;2022-08-19T11:31:10;12.27;;;8.40;;
6031;SDS011;3044;43.232;27.972;2022-08-19T11:33:38;13.17;;;8.93;;
6031;SDS011;3044;43.232;27.972;2022-08-19T11:36:05;13.43;;;9.37;;
6031;SDS011;3044;43.232;27.972;2022-08-19T11:38:33;14.03;;;9.00;;
6031;SDS011;3044;43.232;27.972;2022-08-19T11:41:02;11.37;;;9.00;;
6031;SDS011;3044;43.232;27.972;2022-08-19T11:43:33;12.90;;;8.17;;
6031;SDS011;3044;43.232;27.972;2022-08-19T11:46:03;16.00;;;8.90;;
6031;SDS011;3044;43.232;27.972;2022-08-19T11:48:31;11.67;;;8.67;;
6031;SDS011;3044;43.232;27.972;2022-08-19T11:51:02;14.67;;;9.27;;
6031;SDS011;3044;43.232;27.972;2022-08-19T11:53:32;13.30;;;8.03;;
6031;SDS011;3044;43.232;27.972;2022-08-19T11:55:59;13.70;;;9.07;;
6031;SDS011;3044;43.232;27.972;2022-08-19T11:58:27;17.07;;;8.17;;
6031;SDS011;3044;43.232;27.972;2022-08-19T12:00:55;10.10;;;8.63;;
6031;SDS011;3044;43.232;27.972;2022-08-19T12:03:23;12.57;;;8.57;;
6031;SDS011;3044;43.232;27.972;2022-08-19T12:05:50;9.37;;;8.40;;
6031;SDS011;3044;43.232;27.972;2022-08-19T12:08:18;13.43;;;7.80;;
6031;SDS011;3044;43.232;27.972;2022-08-19T12:10:45;11.20;;;7.90;;
6031;SDS011;3044;43.232;27.972;2022-08-19T12:13:12;14.43;;;8.23;;
6031;SDS011;3044;43.232;27.972;2022-08-19T12:15:44;14.23;;;8.00;;
6031;SDS011;3044;43.232;27.972;2022-08-19T12:18:14;15.37;;;8.63;;
6031;SDS011;3044;43.232;27.972;2022-08-19T12:20:41;14.40;;;7.33;;
6031;SDS011;3044;43.232;27.972;2022-08-19T12:23:11;15.10;;;8.60;;
6031;SDS011;3044;43.232;27.972;2022-08-19T12:25:42;9.93;;;8.27;;
6031;SDS011;3044;43.232;27.972;2022-08-19T12:28:17;14.23;;;8.20;;
6031;SDS011;3044;43.232;27.972;2022-08-19T12:30:45;19.40;;;8.83;;
6031;SDS011;3044;43.232;27.972;2022-08-19T12:33:14;15.53;;;8.47;;
6031;SDS011;3044;43.232;27.972;2022-08-19T12:35:42;16.23;;;8.50;;
6031;SDS011;3044;43.232;27.972;2022-08-19T12:38:11;13.10;;;8.30;;
6031;SDS011;3044;43.232;27.972;2022-08-19T12:40:39;9.50;;;7.77;;
6031;SDS011;3044;43.232;27.972;2022-08-19T12:43:07;11.73;;;8.67;;
6031;SDS011;3044;43.232;27.972;2022-08-19T12:45:34;14.63;;;7.50;;
6031;SDS011;3044;43.232;27.972;2022-08-19T12:48:02;8.57;;;7.50;;
6031;SDS011;3044;43.232;27.972;2022-08-19T12:50:32;13.80;;;8.27;;
6031;SDS011;3044;43.232;27.972;2022-08-19T12:52:59;15.73;;;8.20;;
6031;SDS011;3044;43.232;27.972;2022-08-19T12:55:26;18.10;;;7.63;;
6031;SDS011;3044;43.232;27.972;2022-08-19T12:57:55;12.77;;;7.67;;
6031;SDS011;3044;43.232;27.972;2022-08-19T13:00:22;8.60;;;7.57;;
6031;SDS011;3044;43.232;27.972;2022-08-19T13:02:51;16.93;;;8.63;;
6031;SDS011;3044;43.232;27.972;2022-08-19T13:05:20;13.07;;;7.67;;
6031;SDS011;3044;43.232;27.972;2022-08-19T13:07:50;15.80;;;7.60;;
6031;SDS011;3044;43.232;27.972;2022-08-19T13:10:21;18.47;;;8.23;;
6031;SDS011;3044;43.232;27.972;2022-08-19T13:12:51;9.83;;;7.80;;
6031;SDS011;3044;43.232;27.972;2022-08-19T13:15:19;8.50;;;7.50;;
6031;SDS011;3044;43.232;27.972;2022-08-19T13:17:48;9.40;;;7.57;;
6031;SDS011;3044;43.232;27.972;2022-08-19T13:20:16;10.03;;;7.53;;
6031;SDS011;3044;43.232;27.972;2022-08-19T13:22:47;9.30;;;7.40;;
6031;SDS011;3044;43.232;27.972;2022-08-19T13:25:16;10.40;;;7.80;;
6031;SDS011;3044;43.232;27.972;2022-08-19T13:27:45;10.33;;;8.43;;
6031;SDS011;3044;43.232;27.972;2022-08-19T13:30:13;20.00;;;9.03;;
6031;SDS011;3044;43.232;27.972;2022-08-19T13:32:58;13.93;;;7.87;;
6031;SDS011;3044;43.232;27.972;2022-08-19T13:35:40;12.93;;;8.20;;
6031;SDS011;3044;43.232;27.972;2022-08-19T13:38:08;14.33;;;8.43;;
6031;SDS011;3044;43.232;27.972;2022-08-19T13:40:38;13.73;;;8.33;;
6031;SDS011;3044;43.232;27.972;2022-08-19T13:43:06;9.70;;;8.23;;
6031;SDS011;3044;43.232;27.972;2022-08-19T13:45:34;8.50;;;7.70;;
6031;SDS011;3044;43.232;27.972;2022-08-19T13:48:03;16.53;;;8.20;;
6031;SDS011;3044;43.232;27.972;2022-08-19T13:50:34;10.23;;;7.43;;
6031;SDS011;3044;43.232;27.972;2022-08-19T13:53:05;19.93;;;7.63;;
6031;SDS011;3044;43.232;27.972;2022-08-19T13:55:33;10.87;;;8.00;;
6031;SDS011;3044;43.232;27.972;2022-08-19T13:58:03;20.30;;;8.30;;
6031;SDS011;3044;43.232;27.972;2022-08-19T14:00:31;12.27;;;8.13;;
6031;SDS011;3044;43.232;27.972;2022-08-19T14:03:00;8.23;;;7.43;;
6031;SDS011;3044;43.232;27.972;2022-08-19T14:05:28;8.70;;;7.40;;
6031;SDS011;3044;43.232;27.972;2022-08-19T14:07:56;16.53;;;8.13;;
6031;SDS011;3044;43.232;27.972;2022-08-19T14:10:24;14.73;;;6.50;;
6031;SDS011;3044;43.232;27.972;2022-08-19T14:12:53;8.07;;;6.87;;
6031;SDS011;3044;43.232;27.972;2022-08-19T14:15:24;10.20;;;6.73;;
6031;SDS011;3044;43.232;27.972;2022-08-19T14:17:52;12.20;;;6.80;;
6031;SDS011;3044;43.232;27.972;2022-08-19T14:20:20;7.30;;;6.60;;
6031;SDS011;3044;43.232;27.972;2022-08-19T14:22:47;10.70;;;7.03;;
6031;SDS011;3044;43.232;27.972;2022-08-19T14:25:16;14.83;;;7.00;;
6031;SDS011;3044;43.232;27.972;2022-08-19T14:27:46;11.13;;;6.90;;
6031;SDS011;3044;43.232;27.972;2022-08-19T14:30:15;13.37;;;7.20;;
6031;SDS011;3044;43.232;27.972;2022-08-19T14:32:46;8.03;;;6.57;;
6031;SDS011;3044;43.232;27.972;2022-08-19T14:35:14;10.60;;;7.67;;
6031;SDS011;3044;43.232;27.972;2022-08-19T14:37:44;17.33;;;6.87;;
6031;SDS011;3044;43.232;27.972;2022-08-19T14:40:11;12.43;;;6.83;;
6031;SDS011;3044;43.232;27.972;2022-08-19T14:42:40;11.70;;;7.37;;
6031;SDS011;3044;43.232;27.972;2022-08-19T14:45:08;15.10;;;8.70;;
6031;SDS011;3044;43.232;27.972;2022-08-19T14:47:36;13.83;;;7.17;;
6031;SDS011;3044;43.232;27.972;2022-08-19T14:50:06;10.10;;;7.00;;
6031;SDS011;3044;43.232;27.972;2022-08-19T14:52:34;15.60;;;7.30;;
6031;SDS011;3044;43.232;27.972;2022-08-19T14:55:01;15.03;;;7.10;;
6031;SDS011;3044;43.232;27.972;2022-08-19T14:57:29;14.50;;;7.80;;
6031;SDS011;3044;43.232;27.972;2022-08-19T14:59:56;25.20;;;7.87;;
6031;SDS011;3044;43.232;27.972;2022-08-19T15:02:25;9.10;;;8.20;;
6031;SDS011;3044;43.232;27.972;2022-08-19T15:04:52;15.27;;;7.43;;
6031;SDS011;3044;43.232;27.972;2022-08-19T15:07:22;20.67;;;8.53;;